Flight Track Log - Related Links

Times and Time Zones

All times are in EDT time to prevent confusion due to time zone crossing. See the DAL429 flight status page for this flight to view local times or setup timezone preferences in your user account.

Time Position Orientation Groundspeed Altitude Reporting Facility
EDT Latitude Longitude Course Direction KTS MPH feet Rate Location/Type
Wed 07:44:19 PM 33.6333 -84.5167 183° South 210 242 3,400  Level Atlanta TRACON
Wed 07:49:55 PM 33.3278 -84.5386 117° Southeast 386 444 12,100 1,682 Climbing Atlanta Center
Wed 07:50:55 PM 33.2781 -84.4214 117° Southeast 386 444 14,500 2,250 Climbing Atlanta Center
Wed 07:51:55 PM 33.2242 -84.2969 117° Southeast 407 468 16,600 2,100 Climbing Atlanta Center
Wed 07:52:55 PM 33.1722 -84.1753 117° Southeast 413 475 18,700 2,000 Climbing Atlanta Center
Wed 07:53:55 PM 33.1158 -84.0439 130° Southeast 433 498 20,600 1,750 Climbing Atlanta Center
Wed 07:54:55 PM 33.0450 -83.9447 145° Southeast 439 505 22,200 1,700 Climbing Atlanta Center
Wed 07:55:55 PM 32.9425 -83.8581 145° Southeast 433 498 24,000 1,650 Climbing Atlanta Center
Wed 07:56:55 PM 32.8400 -83.7742 145° Southeast 445 512 25,500 1,350 Climbing Atlanta Center
Wed 07:57:55 PM 32.7333 -83.6858 142° Southeast 458 527 26,700 1,250 Climbing Atlanta Center
Wed 07:58:55 PM 32.6286 -83.5875 140° Southeast 478 550 28,000 1,200 Climbing Atlanta Center
Wed 07:59:55 PM 32.5239 -83.4819 140° Southeast 483 556 29,100 1,350 Climbing Atlanta Center
Wed 08:00:55 PM 32.4128 -83.3697 140° Southeast 489 563 30,700 1,750 Climbing Atlanta Center
Wed 08:01:55 PM 32.3078 -83.2647 140° Southeast 489 563 32,600 1,650 Climbing Atlanta Center
Wed 08:02:55 PM 32.2100 -83.1675 140° Southeast 480 552 34,000 700 Climbing Jacksonville Center
Wed 08:03:55 PM 32.1100 -83.0692 140° Southeast 473 544 34,000  Level Jacksonville Center
Wed 08:04:55 PM 32.0119 -82.9708 140° Southeast 468 539 34,000  Level Jacksonville Center
Wed 08:05:55 PM 31.9119 -82.8731 140° Southeast 468 539 34,000  Level Jacksonville Center
Wed 08:06:55 PM 31.8117 -82.7753 148° Southeast 468 539 34,000 250 Level Jacksonville Center
Wed 08:07:55 PM 31.7050 -82.6972 150° Southeast 461 531 34,500 500 Climbing Jacksonville Center
Wed 08:08:55 PM 31.5983 -82.6242 149° Southeast 456 525 35,000 550 Climbing Jacksonville Center
Wed 08:09:55 PM 31.4875 -82.5467 149° Southeast 456 525 35,600 500 Climbing Jacksonville Center
Wed 08:10:55 PM 31.3808 -82.4717 152° Southeast 456 525 36,000 200 Climbing Jacksonville Center
Wed 08:11:55 PM 31.2700 -82.4039 150° Southeast 451 519 36,000  Level Jacksonville Center
Wed 08:12:55 PM 31.1611 -82.3292 151° Southeast 451 519 36,000  Level Jacksonville Center
Wed 08:13:55 PM 31.0519 -82.2572 150° Southeast 451 519 36,000  Level Jacksonville Center
Wed 08:14:55 PM 30.9431 -82.1853 151° Southeast 451 519 36,000  Level Jacksonville Center
Wed 08:15:55 PM 30.8342 -82.1136 150° Southeast 451 519 36,000  Level Jacksonville Center
Wed 08:16:55 PM 30.7272 -82.0419 150° Southeast 445 512 36,000  Level Jacksonville Center
Wed 08:17:55 PM 30.6181 -81.9681 148° Southeast 445 512 36,000  Level Jacksonville Center
Wed 08:18:55 PM 30.5217 -81.8992 151° Southeast 445 512 36,000  Level Jacksonville Center
Wed 08:19:55 PM 30.4125 -81.8278 151° Southeast 445 512 36,000  Level Jacksonville Center
Wed 08:20:55 PM 30.3011 -81.7569 152° Southeast 445 512 36,000  Level Jacksonville Center
Wed 08:21:55 PM 30.1919 -81.6886 151° Southeast 450 518 36,000  Level Jacksonville Center
Wed 08:22:55 PM 30.0828 -81.6181 151° Southeast 445 512 36,000  Level Jacksonville Center
Wed 08:23:55 PM 29.9733 -81.5475 151° Southeast 445 512 36,000  Level Jacksonville Center
Wed 08:24:55 PM 29.8642 -81.4772 151° Southeast 445 512 36,000  Level Jacksonville Center
Wed 08:25:55 PM 29.7525 -81.4069 150° Southeast 445 512 36,000  Level Jacksonville Center
Wed 08:26:54 PM 29.6453 -81.3369 152° Southeast 440 506 36,000  Level Jacksonville Center
Wed 08:27:54 PM 29.5358 -81.2694 150° Southeast 440 506 36,000  Level Jacksonville Center
Wed 08:28:54 PM 29.4286 -81.1997 145° Southeast 440 506 36,000  Level Jacksonville Center
Wed 08:30:36 PM 29.2408 -81.0514 135° Southeast 452 520 36,000  Level Miami Center
Wed 08:31:37 PM 29.1500 -80.9481 137° Southeast 458 527 36,000  Level Miami Center
Wed 08:32:37 PM 29.0569 -80.8472 137° Southeast 458 527 36,000  Level Miami Center
Wed 08:33:37 PM 28.9636 -80.7467 135° Southeast 463 533 36,000  Level Miami Center
Wed 08:34:37 PM 28.8744 -80.6464 129° Southeast 463 533 36,000  Level Miami Center
Wed 08:35:36 PM 28.7919 -80.5322 124° Southeast 463 533 36,000  Level Miami Center
Wed 08:36:36 PM 28.7200 -80.4092 124° Southeast 468 539 36,000  Level Miami Center
Wed 08:37:36 PM 28.6519 -80.2958 125° Southeast 475 547 36,000  Level Miami Center
Wed 08:38:37 PM 28.5714 -80.1633 125° Southeast 475 547 36,000  Level Miami Center
Wed 08:39:36 PM 28.4969 -80.0408 124° Southeast 475 547 36,000  Level Miami Center
Wed 08:40:36 PM 28.4225 -79.9158 124° Southeast 475 547 36,000  Level Miami Center
Wed 08:41:37 PM 28.3481 -79.7911 125° Southeast 475 547 36,000  Level Miami Center
Wed 08:42:36 PM 28.2731 -79.6714 124° Southeast 475 547 36,000  Level Miami Center
Wed 08:43:37 PM 28.1983 -79.5447 126° Southeast 481 554 36,000  Level Miami Center
Wed 08:44:36 PM 28.1211 -79.4250 124° Southeast 481 554 36,000  Level Miami Center
Wed 08:45:36 PM 28.0481 -79.3033 125° Southeast 474 545 36,000  Level Miami Center
Wed 08:46:36 PM 27.9708 -79.1794 124° Southeast 474 545 36,000  Level Miami Center
Wed 08:47:37 PM 27.8975 -79.0581 124° Southeast 474 545 36,000 100 Level Miami Center
Wed 08:48:36 PM 27.8242 -78.9347 124° Southeast 474 545 36,200 350 Climbing Miami Center
Wed 08:49:37 PM 27.7508 -78.8136 126° Southeast 474 545 36,700 397 Climbing Miami Center
Wed 08:50:37 PM 27.6750 -78.6975 131° Southeast 474 545 37,000 150 Climbing Miami Center
Wed 08:51:37 PM 27.5867 -78.5836 125° Southeast 474 545 37,000  Level Miami Center
Wed 08:52:37 PM 27.5128 -78.4653 128° Southeast 469 540 37,000  Level Miami Center
Wed 08:53:37 PM 27.4325 -78.3494 128° Southeast 469 540 37,000  Level Miami Center
Wed 08:54:37 PM 27.3689 -78.2575 126° Southeast 474 545 37,000  Level Miami Center
Wed 08:55:37 PM 27.2822 -78.1256 130° Southeast 465 535 37,000  Level Miami Center
Wed 08:56:36 PM 27.2017 -78.0194 126° Southeast 463 533 37,000  Level Miami Center
Wed 08:57:36 PM 27.1211 -77.8928 129° Southeast 470 541 37,000  Level Miami Center
Wed 08:58:36 PM 27.0406 -77.7800 128° Southeast 475 547 37,000  Level Miami Center
Wed 08:59:36 PM 26.9597 -77.6653 126° Southeast 475 547 37,000  Level Miami Center
Wed 09:00:36 PM 26.8706 -77.5272 128° Southeast 475 547 37,000  Level Miami Center
Wed 09:01:36 PM 26.7978 -77.4242 129° Southeast 468 539 37,000  Level Miami Center
Wed 09:02:36 PM 26.7147 -77.3100 127° Southeast 468 539 37,000 298 Level Miami Center
Wed 09:03:37 PM 26.6336 -77.1911 128° Southeast 468 539 37,600 500 Climbing Miami Center
Wed 09:04:36 PM 26.5522 -77.0747 127° Southeast 476 548 38,000 202 Climbing Miami Center
Wed 09:05:36 PM 26.4708 -76.9561 129° Southeast 476 548 38,000  Level Miami Center
Wed 09:06:36 PM 26.3914 -76.8447 129° Southeast 468 539 38,000  Level Miami Center
Wed 09:07:37 PM 26.3119 -76.7336 133° Southeast 469 540 38,000  Level Miami Center
Wed 09:08:36 PM 26.2242 -76.6294 131° Southeast 463 533 38,000  Level Miami Center
Wed 09:09:36 PM 26.1383 -76.5183 128° Southeast 463 533 38,000  Level Miami Center
Wed 09:10:36 PM 26.0564 -76.4008 128° Southeast 474 545 38,000  Level Miami Center
Wed 09:11:36 PM 25.9767 -76.2878 129° Southeast 474 545 38,000  Level Miami Center
Wed 09:12:36 PM 25.8925 -76.1703 129° Southeast 474 545 38,000  Level Miami Center
Wed 09:13:37 PM 25.8106 -76.0578 128° Southeast 466 536 38,000  Level Miami Center
Wed 09:14:36 PM 25.7325 -75.9453 129° Southeast 464 534 38,000  Level Miami Center
Wed 09:15:36 PM 25.6503 -75.8328 128° Southeast 466 536 38,000  Level Miami Center
Wed 09:16:36 PM 25.5678 -75.7161 131° Southeast 466 536 38,000  Level Miami Center
Wed 09:17:36 PM 25.4814 -75.6042 127° Southeast 473 544 38,000  Level Miami Center
Wed 09:18:36 PM 25.4031 -75.4900 130° Southeast 468 539 38,000  Level Miami Center
Wed 09:19:36 PM 25.3097 -75.3692 129° Southeast 468 539 38,000  Level Miami Center
Wed 09:20:36 PM 25.2272 -75.2553 128° Southeast 463 533 38,000  Level Miami Center
Wed 09:21:36 PM 25.1442 -75.1369 130° Southeast 469 540 38,000  Level Miami Center
Wed 09:22:36 PM 25.0614 -75.0281 128° Southeast 469 540 38,000  Level Miami Center
Wed 09:23:36 PM 24.9806 -74.9147 128° Southeast 469 540 38,000  Level Miami Center
Wed 09:24:36 PM 24.8997 -74.8014 103° East 469 540 38,000  Level Miami Center
Wed 09:25:36 PM 24.8683 -74.6531 82° East 469 540 38,000  Level Miami Center
Wed 09:26:36 PM 24.8867 -74.5014 81° East 471 542 38,000  Level Miami Center
Wed 09:27:36 PM 24.9094 -74.3500 86° East 479 551 38,000  Level Miami Center
Wed 09:28:36 PM 24.9192 -74.1986 107° East 492 566 38,000  Level Miami Center
Wed 09:29:36 PM 24.8789 -74.0550 122° Southeast 486 559 38,000  Level Miami Center
Wed 09:30:36 PM 24.8097 -73.9308 129° Southeast 461 531 38,000  Level Miami Center
Wed 09:31:36 PM 24.7258 -73.8161 132° Southeast 467 537 38,000  Level Miami Center
Wed 09:32:36 PM 24.6336 -73.7042 137° Southeast 476 548 38,000  Level Miami Center
Wed 09:33:36 PM 24.5417 -73.6083 135° Southeast 468 539 38,000  Level Miami Center
Wed 09:34:36 PM 24.4539 -73.5103 130° Southeast 462 532 38,000  Level Miami Center
Wed 09:35:36 PM 24.3742 -73.4075 131° Southeast 467 537 38,000  Level Miami Center
Wed 09:36:37 PM 24.2903 -73.3025 132° Southeast 468 539 38,000  Level Miami Center
Wed 09:37:36 PM 24.2000 -73.1936 134° Southeast 474 545 38,000  Level Miami Center
Wed 09:38:36 PM 24.1033 -73.0850 131° Southeast 482 555 38,000  Level Miami Center
Wed 09:39:36 PM 24.0169 -72.9761 133° Southeast 482 555 38,000  Level Miami Center
Wed 09:40:36 PM 23.9286 -72.8719 134° Southeast 482 555 38,000  Level Miami Center
Wed 09:41:36 PM 23.8250 -72.7528 132° Southeast 477 549 38,000  Level Miami Center
Wed 09:42:36 PM 23.7342 -72.6422 133° Southeast 488 562 38,000  Level Miami Center
Wed 09:43:36 PM 23.6433 -72.5364 134° Southeast 488 562 38,000  Level Miami Center
Wed 09:44:36 PM 23.5506 -72.4308 133° Southeast 488 562 38,000  Level Miami Center
Wed 09:45:36 PM 23.4575 -72.3211 133° Southeast 488 562 38,000  Level Miami Center
Wed 09:46:36 PM 23.3644 -72.2133 132° Southeast 493 567 38,000  Level Miami Center
Wed 09:47:36 PM 23.2711 -72.0994 134° Southeast 493 567 38,000 -150 Level Miami Center
Wed 09:48:36 PM 23.1758 -71.9922 135° Southeast 493 567 37,700 -393 Descending Miami Center
Wed 09:49:38 PM 23.0761 -71.8856 131° Southeast 493 567 37,200 -341 Descending Miami Center
Wed 09:50:39 PM 22.9847 -71.7717 135° Southeast 493 567 37,000 -101 Descending Miami Center
Wed 09:51:37 PM 22.8914 -71.6694 133° Southeast 488 562 37,000  Level Miami Center
Wed 09:52:37 PM 22.7981 -71.5608 133° Southeast 488 562 37,000  Level Miami Center
Wed 09:53:37 PM 22.7044 -71.4522 133° Southeast 493 567 37,000  Level Miami Center
Wed 09:54:37 PM 22.6128 -71.3458 134° Southeast 488 562 37,000  Level Miami Center
Wed 09:55:37 PM 22.5214 -71.2419 133° Southeast 488 562 37,000  Level Miami Center
Wed 09:56:37 PM 22.4275 -71.1336 134° Southeast 488 562 37,000  Level Miami Center
Wed 09:57:38 PM 22.3339 -71.0278 134° Southeast 488 562 37,000  Level Miami Center
Wed 09:58:39 PM 22.2422 -70.9244 133° Southeast 488 562 37,000  Level Miami Center
Wed 09:59:38 PM 22.1503 -70.8186 133° Southeast 488 562 37,000  Level Miami Center
Wed 10:00:38 PM 22.0564 -70.7111 134° Southeast 488 562 37,000  Level Miami Center
Wed 10:01:37 PM 21.9733 -70.6189 133° Southeast 488 562 37,000  Level Miami Center
Wed 10:02:39 PM 21.8814 -70.5136 134° Southeast 488 562 37,000  Level Miami Center
Wed 10:03:39 PM 21.7897 -70.4131 133° Southeast 488 562 37,000  Level Miami Center
Wed 10:04:37 PM 21.6975 -70.3083 133° Southeast 488 562 37,000  Level Miami Center
Wed 10:05:38 PM 21.6033 -70.2014 135° Southeast 488 562 37,000  Level Miami Center
Wed 10:06:38 PM 21.5094 -70.1014 133° Southeast 488 562 37,000  Level Miami Center
Wed 10:07:39 PM 21.4172 -69.9969 134° Southeast 488 562 37,000  Level Miami Center
Wed 10:08:37 PM 21.3250 -69.8928 133° Southeast 488 562 37,000  Level Miami Center
Wed 10:09:37 PM 21.2347 -69.7906 135° Southeast 488 562 37,000  Level Miami Center
Wed 10:10:37 PM 21.1406 -69.6889 134° Southeast 488 562 37,000  Level Miami Center
Wed 10:11:37 PM 21.0481 -69.5850 134° Southeast 488 562 37,000  Level Miami Center
Wed 10:12:37 PM 20.9556 -69.4814 135° Southeast 488 562 37,000  Level Miami Center
Wed 10:13:38 PM 20.8589 -69.3781 133° Southeast 488 562 37,000  Level Miami Center
Wed 10:14:38 PM 20.7686 -69.2744 134° Southeast 488 562 37,000  Level Miami Center
Wed 10:15:39 PM 20.6739 -69.1714 134° Southeast 488 562 37,000  Level Miami Center
Wed 10:16:37 PM 20.5814 -69.0703 133° Southeast 488 562 37,000  Level Miami Center
Wed 10:17:37 PM 20.4886 -68.9650 133° Southeast 488 562 37,000  Level Miami Center
Wed 10:18:37 PM 20.3981 -68.8600 135° Southeast 488 562 37,000  Level Miami Center
Wed 10:19:37 PM 20.3033 -68.7594 126° Southeast 488 562 37,000  Level Miami Center
Wed 10:20:37 PM 20.2242 -68.6428 127° Southeast 488 562 37,000  Level Miami Center
Wed 10:21:38 PM 20.1456 -68.5331 124° Southeast 482 555 37,000  Level Miami Center
Wed 10:22:39 PM 20.0706 -68.4142 129° Southeast 482 555 37,000  Level Miami Center
Wed 10:23:39 PM 19.9875 -68.3047 125° Southeast 482 555 37,000  Level Miami Center
Wed 10:24:37 PM 19.9106 -68.1886 128° Southeast 482 555 37,000  Level Miami Center
Wed 10:25:27 PM 19.8333 -68.0833 127° Southeast 480 552 37,000  Level San Juan Center
Wed 10:26:27 PM 19.7500 -67.9667 127° Southeast 480 552 37,000 -50 Level San Juan Center
Wed 10:27:27 PM 19.6667 -67.8500 125° Southeast 470 541 36,900 -595 Descending San Juan Center
Wed 10:28:28 PM 19.6000 -67.7500 127° Southeast 470 541 35,800 -942 Descending San Juan Center
Wed 10:29:28 PM 19.5167 -67.6333 127° Southeast 460 529 35,000 -1,250 Descending San Juan Center
Wed 10:30:28 PM 19.4333 -67.5167 125° Southeast 460 529 33,300 -2,500 Descending San Juan Center
Wed 10:31:28 PM 19.3667 -67.4167 127° Southeast 470 541 30,000 -2,876 Descending San Juan Center
Wed 10:32:29 PM 19.2833 -67.3000 125° Southeast 460 529 27,500 -2,479 Descending San Juan Center
Wed 10:33:29 PM 19.2167 -67.2000 127° Southeast 450 518 25,000 -2,650 Descending San Juan Center
Wed 10:34:29 PM 19.1333 -67.0833 125° Southeast 440 506 22,200 -2,579 Descending San Juan Center
Wed 10:35:30 PM 19.0667 -66.9833 125° Southeast 420 483 19,800 -2,281 Descending San Juan Center
Wed 10:36:30 PM 19.0000 -66.8833 125° Southeast 410 472 17,600 -2,231 Descending San Juan Center
Wed 10:37:31 PM 18.9333 -66.7833 130° Southeast 390 449 15,300 -2,182 Descending San Juan Center
Wed 10:38:31 PM 18.8667 -66.7000 122° Southeast 370 426 13,200 -2,150 Descending San Juan Center
Wed 10:39:31 PM 18.8167 -66.6167 130° Southeast 370 426 11,000 -1,091 Descending San Juan Center
Wed 10:40:32 PM 18.7500 -66.5333 130° Southeast 350 403 11,000 -893 Level San Juan Center
Wed 10:41:32 PM 18.6833 -66.4500 137° Southeast 340 391 9,200 -1,488 Descending San Juan Center
Wed 10:42:33 PM 18.6167 -66.3833 128° Southeast 320 368 8,000 -1,438 Descending San Juan Center
Wed 10:43:33 PM 18.5667 -66.3167 145° Southeast 280 322 6,300 -1,884 Descending San Juan Center
Wed 10:44:34 PM 18.5000 -66.2667 137° Southeast 250 288 4,200 -1,736 Descending San Juan Center
Wed 10:45:34 PM 18.4500 -66.2167 109° East 250 288 2,800 -750 Descending San Juan Center
Wed 10:46:34 PM 18.4333 -66.1667 90° East 200 230 2,700 -397 Descending San Juan Center
Wed 10:47:35 PM 18.4333 -66.1167 90° East 170 196 2,000 -744 Descending San Juan Center
Wed 10:48:35 PM 18.4333 -66.0667 90° East 150 173 1,200 -750 Descending San Juan Center
Wed 10:49:35 PM 18.4333 -66.0333 90° East 110 127 500 -700 Descending San Juan Center

Login

Don't have an account? Register now (free) for customized features, flight alerts, and more!